createdAt,value
2018-02-08T00:00:11.921Z,74.00
2018-02-08T00:02:42.557Z,73.70
2018-02-08T00:05:13.549Z,73.60
2018-02-08T00:07:44.105Z,73.70
2018-02-08T00:10:14.586Z,73.50
2018-02-08T00:12:45.037Z,73.30
2018-02-08T00:15:15.538Z,73.30
2018-02-08T00:17:47.270Z,73.30
2018-02-08T00:20:18.062Z,73.20
2018-02-08T00:22:49.371Z,72.60
2018-02-08T00:25:20.646Z,72.40
2018-02-08T00:27:51.119Z,73.10
2018-02-08T00:30:22.144Z,72.20
2018-02-08T00:32:52.778Z,71.90
2018-02-08T00:35:24.058Z,70.90
2018-02-08T00:37:54.581Z,70.90
2018-02-08T00:40:25.024Z,70.80
2018-02-08T00:42:56.716Z,70.70
2018-02-08T00:45:28.033Z,70.20
2018-02-08T00:47:58.866Z,70.20
2018-02-08T00:50:29.343Z,70.30
2018-02-08T00:52:59.873Z,69.80
2018-02-08T00:55:30.346Z,69.40
2018-02-08T00:58:00.811Z,69.20
2018-02-08T01:00:32.437Z,68.90
2018-02-08T01:03:02.946Z,68.90
2018-02-08T01:05:33.687Z,67.60
2018-02-08T01:08:04.170Z,67.80
2018-02-08T01:10:35.452Z,67.50
2018-02-08T01:13:05.958Z,67.60
2018-02-08T01:15:37.333Z,67.40
2018-02-08T01:18:08.201Z,67.30
2018-02-08T01:20:38.713Z,66.10
2018-02-08T01:23:09.201Z,66.30
2018-02-08T01:25:39.687Z,66.40
2018-02-08T01:28:10.110Z,65.40
2018-02-08T01:30:41.010Z,65.30
2018-02-08T01:33:11.491Z,66.00
2018-02-08T01:35:43.045Z,64.80
2018-02-08T01:38:14.932Z,65.60
2018-02-08T01:40:45.377Z,65.60
2018-02-08T01:43:15.866Z,64.80
2018-02-08T01:45:47.142Z,64.40
2018-02-08T01:48:17.889Z,64.40
2018-02-08T01:50:48.412Z,63.70
2018-02-08T01:53:19.460Z,62.80
2018-02-08T01:55:49.948Z,63.20
2018-02-08T01:58:21.222Z,62.90
2018-02-08T02:00:51.746Z,62.90
2018-02-08T02:03:22.177Z,62.50
2018-02-08T02:05:53.737Z,61.70
2018-02-08T02:08:24.125Z,62.20
2018-02-08T02:10:55.509Z,63.20
2018-02-08T02:13:26.006Z,63.10
2018-02-08T02:15:56.546Z,61.60
2018-02-08T02:18:27.305Z,61.60
2018-02-08T02:20:57.922Z,61.00
2018-02-08T02:23:29.386Z,60.80
2018-02-08T02:25:59.927Z,61.50
2018-02-08T02:28:30.406Z,61.20
2018-02-08T02:31:01.665Z,61.60
2018-02-08T02:33:32.167Z,61.50
2018-02-08T02:36:04.601Z,60.80
2018-02-08T02:38:34.990Z,60.70
2018-02-08T02:41:05.377Z,60.80
2018-02-08T02:43:35.847Z,60.60
2018-02-08T02:46:06.293Z,60.90
2018-02-08T02:48:37.843Z,60.00
2018-02-08T02:51:08.281Z,60.00
2018-02-08T02:53:41.428Z,59.70
2018-02-08T02:56:11.909Z,59.70
2018-02-08T02:58:42.529Z,60.60
2018-02-08T03:01:13.164Z,60.00
2018-02-08T03:03:43.658Z,60.40
2018-02-08T03:06:14.581Z,60.30
2018-02-08T03:08:45.921Z,59.90
2018-02-08T03:11:17.214Z,60.10
2018-02-08T03:13:47.783Z,60.10
2018-02-08T03:16:18.301Z,59.90
2018-02-08T03:18:49.947Z,59.50
2018-02-08T03:21:20.405Z,59.80
2018-02-08T03:23:52.782Z,59.70
2018-02-08T03:26:24.052Z,60.00
2018-02-08T03:29:01.309Z,60.00
2018-02-08T03:31:34.271Z,60.30
2018-02-08T03:34:04.758Z,60.30
2018-02-08T03:36:35.294Z,60.40
2018-02-08T03:39:06.038Z,59.50
2018-02-08T03:41:36.517Z,59.90
2018-02-08T03:44:07.803Z,60.00
2018-02-08T03:46:38.302Z,60.00
2018-02-08T03:49:09.960Z,59.40
2018-02-08T03:51:40.490Z,59.40
2018-02-08T03:54:11.585Z,59.60
2018-02-08T03:56:42.057Z,59.30
2018-02-08T03:59:12.642Z,59.50
2018-02-08T04:01:43.162Z,59.30
2018-02-08T04:04:13.678Z,58.80
2018-02-08T04:06:44.646Z,58.20
2018-02-08T04:09:15.041Z,58.40
2018-02-08T04:11:45.601Z,58.00
2018-02-08T04:14:16.079Z,58.00
2018-02-08T04:16:46.752Z,57.60
2018-02-08T04:19:17.741Z,56.90
2018-02-08T04:21:48.278Z,57.40
2018-02-08T04:24:19.682Z,56.50
2018-02-08T04:26:50.189Z,56.50
2018-02-08T04:29:20.660Z,57.00
2018-02-08T04:31:52.875Z,57.00
2018-02-08T04:34:23.379Z,56.40
2018-02-08T04:36:53.956Z,56.40
2018-02-08T04:39:34.966Z,56.70
2018-02-08T04:42:16.794Z,56.00
2018-02-08T04:44:58.013Z,55.90
2018-02-08T04:48:00.726Z,55.60
2018-02-08T04:50:33.070Z,55.60
2018-02-08T04:53:03.439Z,55.60
2018-02-08T04:55:34.740Z,55.10
2018-02-08T04:58:05.154Z,55.00
2018-02-08T05:00:36.545Z,55.10
2018-02-08T05:03:08.193Z,54.90
2018-02-08T05:05:39.381Z,55.20
2018-02-08T05:08:10.398Z,55.20
2018-02-08T05:10:41.609Z,55.30
2018-02-08T05:13:12.745Z,54.90
2018-02-08T05:15:43.653Z,54.90
2018-02-08T05:18:14.069Z,55.10
2018-02-08T05:20:45.549Z,54.80
2018-02-08T05:23:16.101Z,54.50
2018-02-08T05:25:47.501Z,54.60
2018-02-08T05:28:17.854Z,54.60
2018-02-08T05:30:48.271Z,54.90
2018-02-08T05:33:19.204Z,54.40
2018-02-08T05:35:50.258Z,55.50
2018-02-08T05:38:20.630Z,54.90
2018-02-08T05:40:51.027Z,55.30
2018-02-08T05:43:23.170Z,54.80
2018-02-08T05:45:54.600Z,54.70
2018-02-08T05:48:26.593Z,53.90
2018-02-08T05:50:59.598Z,54.60
2018-02-08T05:53:31.902Z,53.80
2018-02-08T05:56:02.895Z,53.70
2018-02-08T05:58:33.335Z,54.10
2018-02-08T06:01:04.479Z,54.40
2018-02-08T06:03:36.131Z,54.00
2018-02-08T06:06:07.301Z,54.00
2018-02-08T06:08:37.674Z,53.90
2018-02-08T06:11:08.050Z,54.40
2018-02-08T06:13:38.466Z,54.10
2018-02-08T06:16:10.097Z,53.60
2018-02-08T06:18:40.455Z,53.60
2018-02-08T06:21:11.133Z,52.80
2018-02-08T06:23:41.548Z,53.00
2018-02-08T06:26:12.001Z,52.00
2018-02-08T06:28:42.420Z,51.90
2018-02-08T06:31:12.802Z,51.70
2018-02-08T06:33:44.530Z,52.00
2018-02-08T06:36:15.629Z,51.70
2018-02-08T06:38:46.021Z,51.70
2018-02-08T06:41:16.432Z,51.50
2018-02-08T06:43:47.582Z,51.60
2018-02-08T06:46:17.991Z,51.50
2018-02-08T06:48:49.162Z,51.70
2018-02-08T06:51:20.001Z,51.60
2018-02-08T06:53:50.398Z,52.10
2018-02-08T06:56:21.559Z,53.00
2018-02-08T06:58:52.027Z,53.00
2018-02-08T07:01:22.444Z,53.40
2018-02-08T07:03:53.922Z,52.10
2018-02-08T07:06:24.439Z,53.30
2018-02-08T07:08:55.130Z,54.00
2018-02-08T07:11:25.654Z,54.30
2018-02-08T07:13:56.145Z,54.10
2018-02-08T07:16:26.591Z,54.40
2018-02-08T07:18:57.782Z,53.80
2018-02-08T07:21:29.626Z,53.80
2018-02-08T07:24:00.085Z,53.60
2018-02-08T07:26:30.558Z,53.50
2018-02-08T07:29:01.780Z,53.90
2018-02-08T07:31:32.222Z,53.90
2018-02-08T07:34:04.437Z,53.30
2018-02-08T07:36:34.890Z,53.20
2018-02-08T07:39:06.279Z,53.60
2018-02-08T07:41:37.455Z,53.00
2018-02-08T07:44:12.185Z,53.00
2018-02-08T07:46:43.356Z,52.60
2018-02-08T07:49:13.818Z,52.70
2018-02-08T07:51:45.826Z,52.90
2018-02-08T07:54:16.263Z,53.80
2018-02-08T07:56:46.787Z,53.40
2018-02-08T07:59:17.198Z,53.30
2018-02-08T08:01:47.625Z,52.70
2018-02-08T08:04:18.632Z,52.70
2018-02-08T08:06:49.193Z,52.20
2018-02-08T08:09:20.182Z,52.20
2018-02-08T08:11:51.473Z,52.50
2018-02-08T08:14:22.008Z,52.40
2018-02-08T08:16:53.938Z,52.70
2018-02-08T08:19:24.637Z,53.20
2018-02-08T08:21:55.258Z,53.00
2018-02-08T08:24:25.826Z,52.40
2018-02-08T08:26:57.097Z,52.90
2018-02-08T08:29:27.593Z,52.90
2018-02-08T08:31:58.969Z,52.40
2018-02-08T08:34:30.016Z,52.40
2018-02-08T08:37:00.481Z,52.30
2018-02-08T08:39:31.382Z,52.60
2018-02-08T08:42:01.850Z,52.90
2018-02-08T08:44:33.032Z,53.00
2018-02-08T08:47:03.477Z,52.90
2018-02-08T08:49:33.993Z,53.10
2018-02-08T08:52:05.519Z,52.70
2018-02-08T08:54:36.805Z,52.80
2018-02-08T08:57:07.270Z,52.80
2018-02-08T08:59:37.825Z,53.00
2018-02-08T09:02:09.103Z,52.30
2018-02-08T09:04:39.638Z,52.20
2018-02-08T09:07:10.169Z,52.10
2018-02-08T09:09:40.637Z,52.60
2018-02-08T09:12:11.482Z,52.40
2018-02-08T09:14:41.980Z,52.00
2018-02-08T09:17:12.545Z,52.10
2018-02-08T09:19:43.786Z,52.50
2018-02-08T09:22:15.838Z,52.40
2018-02-08T09:24:46.374Z,52.50
2018-02-08T09:27:17.900Z,52.60
2018-02-08T09:29:48.424Z,52.50
2018-02-08T09:32:18.951Z,52.20
2018-02-08T09:34:50.150Z,52.10
2018-02-08T09:37:21.466Z,51.60
2018-02-08T09:39:53.018Z,51.60
2018-02-08T09:42:23.471Z,51.60
2018-02-08T09:44:54.763Z,51.50
2018-02-08T09:47:25.290Z,51.50
2018-02-08T09:49:57.052Z,50.90
2018-02-08T09:52:27.879Z,50.90
2018-02-08T09:54:59.606Z,50.40
2018-02-08T09:57:31.357Z,51.00
2018-02-08T10:00:02.615Z,50.70
2018-02-08T10:02:33.150Z,50.60
2018-02-08T10:05:04.249Z,50.60
2018-02-08T10:07:34.741Z,50.40
2018-02-08T10:10:06.530Z,50.60
2018-02-08T10:12:37.078Z,50.50
2018-02-08T10:15:07.520Z,50.00
2018-02-08T10:17:39.801Z,49.80
2018-02-08T10:20:11.194Z,49.70
2018-02-08T10:22:42.658Z,50.00
2018-02-08T10:25:13.126Z,49.50
2018-02-08T10:27:44.753Z,50.10
2018-02-08T10:30:15.972Z,50.10
2018-02-08T10:32:46.485Z,50.20
2018-02-08T10:35:16.970Z,49.80
2018-02-08T10:37:49.176Z,48.70
2018-02-08T10:40:20.160Z,49.90
2018-02-08T10:42:50.712Z,49.90
2018-02-08T10:45:22.009Z,50.20
2018-02-08T10:47:52.558Z,50.20
2018-02-08T10:50:24.217Z,50.50
2018-02-08T10:52:54.997Z,50.70
2018-02-08T10:55:26.230Z,50.10
2018-02-08T10:57:57.960Z,50.40
2018-02-08T11:00:29.038Z,50.60
2018-02-08T11:03:00.087Z,50.80
2018-02-08T11:05:31.504Z,50.70
2018-02-08T11:08:04.309Z,51.10
2018-02-08T11:10:36.056Z,51.50
2018-02-08T11:13:07.453Z,51.80
2018-02-08T11:15:38.053Z,51.70
2018-02-08T11:18:08.565Z,52.00
2018-02-08T11:20:39.739Z,51.60
2018-02-08T11:23:10.479Z,51.60
2018-02-08T11:25:40.960Z,51.50
2018-02-08T11:28:12.591Z,51.80
2018-02-08T11:30:43.089Z,51.70
2018-02-08T11:33:13.694Z,51.90
2018-02-08T11:35:44.434Z,52.00
2018-02-08T11:38:15.020Z,52.10
2018-02-08T11:40:46.093Z,52.40
2018-02-08T11:43:18.017Z,52.10
2018-02-08T11:45:49.182Z,52.00
2018-02-08T11:48:20.441Z,51.80
2018-02-08T11:50:51.701Z,51.90
2018-02-08T11:53:23.161Z,52.50
2018-02-08T11:55:53.552Z,52.00
2018-02-08T11:58:26.334Z,52.30
2018-02-08T12:00:58.124Z,52.30
2018-02-08T12:03:28.668Z,52.30
2018-02-08T12:05:59.182Z,51.80
2018-02-08T12:08:29.683Z,52.00
2018-02-08T12:11:01.585Z,52.30
2018-02-08T12:13:32.607Z,52.30
2018-02-08T12:16:03.219Z,52.30
2018-02-08T12:18:34.587Z,52.80
2018-02-08T12:21:06.649Z,52.80
2018-02-08T12:23:37.694Z,53.30
2018-02-08T12:26:08.698Z,53.10
2018-02-08T12:28:40.461Z,53.00
2018-02-08T12:31:12.922Z,53.20
2018-02-08T12:33:44.846Z,53.00
2018-02-08T12:36:15.360Z,53.00
2018-02-08T12:38:45.857Z,52.80
2018-02-08T12:41:18.578Z,52.80
2018-02-08T12:43:49.349Z,52.80
2018-02-08T12:46:21.410Z,53.00
2018-02-08T12:48:52.274Z,53.30
2018-02-08T12:53:59.078Z,53.40
2018-02-08T12:56:30.413Z,53.80
2018-02-08T12:59:02.034Z,53.50
2018-02-08T13:01:32.518Z,53.40
2018-02-08T13:04:03.015Z,53.20
2018-02-08T13:06:34.514Z,53.00
2018-02-08T13:09:06.313Z,53.00
2018-02-08T13:11:37.529Z,53.00
2018-02-08T13:14:08.261Z,52.80
2018-02-08T13:16:38.990Z,52.90
2018-02-08T13:19:10.873Z,53.00
2018-02-08T13:21:43.071Z,53.60
2018-02-08T13:24:14.590Z,55.70
2018-02-08T13:26:45.037Z,55.70
2018-02-08T13:29:16.700Z,55.90
2018-02-08T13:31:51.268Z,57.30
2018-02-08T13:34:21.864Z,57.30
2018-02-08T13:36:54.490Z,58.30
2018-02-08T13:39:25.329Z,58.30
2018-02-08T13:41:56.442Z,58.20
2018-02-08T13:44:26.939Z,58.40
2018-02-08T13:46:57.925Z,58.90
2018-02-08T13:49:29.877Z,59.20
2018-02-08T13:52:06.281Z,59.20
2018-02-08T13:54:45.287Z,59.10
2018-02-08T13:57:21.111Z,59.20
2018-02-08T14:00:05.485Z,59.60
2018-02-08T14:02:36.378Z,59.70
2018-02-08T14:05:07.812Z,59.70
2018-02-08T14:07:39.538Z,59.70
2018-02-08T14:10:10.392Z,59.70
2018-02-08T14:12:41.060Z,59.80
2018-02-08T14:15:12.629Z,60.50
2018-02-08T14:17:44.173Z,60.40
2018-02-08T14:20:15.940Z,61.80
2018-02-08T14:22:46.813Z,61.80
2018-02-08T14:25:18.762Z,62.10
2018-02-08T14:27:50.041Z,62.40
2018-02-08T14:30:21.760Z,62.40
2018-02-08T14:32:52.561Z,62.10
2018-02-08T14:35:24.567Z,61.20
2018-02-08T14:37:57.904Z,61.20
2018-02-08T14:40:28.944Z,61.40
2018-02-08T14:43:00.385Z,61.50
2018-02-08T14:45:31.409Z,60.60
2018-02-08T14:48:02.418Z,61.60
2018-02-08T14:50:34.122Z,61.60
2018-02-08T14:53:04.841Z,61.90
2018-02-08T14:55:36.655Z,61.90
2018-02-08T14:58:07.614Z,62.10
2018-02-08T15:00:38.277Z,62.40
2018-02-08T15:03:09.657Z,62.30
2018-02-08T15:05:42.221Z,62.60
2018-02-08T15:08:14.173Z,62.50
2018-02-08T15:10:46.721Z,63.10
2018-02-08T15:13:17.692Z,62.90
2018-02-08T15:15:48.434Z,62.90
2018-02-08T15:18:19.179Z,63.00
2018-02-08T15:20:51.582Z,63.20
2018-02-08T15:23:22.844Z,63.20
2018-02-08T15:25:54.554Z,63.30
2018-02-08T15:28:26.405Z,63.40
2018-02-08T15:30:57.200Z,63.40
2018-02-08T15:33:28.123Z,63.70
2018-02-08T15:35:59.105Z,63.80
2018-02-08T15:38:30.179Z,64.10
2018-02-08T15:41:01.582Z,64.40
2018-02-08T15:43:34.123Z,64.20
2018-02-08T15:46:04.936Z,64.00
2018-02-08T15:48:37.058Z,64.10
2018-02-08T15:51:09.005Z,64.10
2018-02-08T15:53:40.527Z,64.00
2018-02-08T15:56:11.455Z,64.00
2018-02-08T15:58:43.831Z,64.20
2018-02-08T16:01:15.368Z,64.10
2018-02-08T16:03:47.035Z,63.70
2018-02-08T16:06:19.862Z,63.80
2018-02-08T16:08:51.421Z,63.70
2018-02-08T16:11:22.009Z,63.70
2018-02-08T16:13:52.917Z,63.70
2018-02-08T16:16:23.757Z,63.70
2018-02-08T16:18:55.541Z,62.80
2018-02-08T16:21:26.230Z,62.80
2018-02-08T16:23:56.799Z,62.80
2018-02-08T16:26:30.339Z,63.20
2018-02-08T16:29:02.678Z,63.30
2018-02-08T16:31:34.601Z,63.20
2018-02-08T16:34:05.434Z,62.80
2018-02-08T16:36:36.179Z,63.40
2018-02-08T16:39:08.866Z,62.30
2018-02-08T16:41:40.239Z,62.00
2018-02-08T16:44:11.053Z,62.00
2018-02-08T16:46:42.382Z,62.20
2018-02-08T16:49:12.940Z,62.20
2018-02-08T16:51:45.257Z,62.60
2018-02-08T16:54:15.826Z,62.60
2018-02-08T16:56:47.738Z,62.70
2018-02-08T16:59:18.426Z,62.70
2018-02-08T17:01:49.831Z,63.20
2018-02-08T17:04:20.446Z,63.10
2018-02-08T17:06:52.046Z,63.30
2018-02-08T17:09:23.825Z,63.20
2018-02-08T17:11:55.112Z,62.90
2018-02-08T17:14:25.632Z,62.90
2018-02-08T17:16:57.192Z,63.10
2018-02-08T17:19:27.718Z,63.10
2018-02-08T17:21:59.038Z,63.40
2018-02-08T17:24:29.567Z,63.30
2018-02-08T17:27:00.486Z,63.70
2018-02-08T17:29:31.590Z,63.50
2018-02-08T17:32:02.422Z,63.50
2018-02-08T17:34:33.038Z,63.60
2018-02-08T17:37:04.538Z,64.00
2018-02-08T17:39:35.471Z,63.80
2018-02-08T17:42:06.776Z,64.50
2018-02-08T17:44:37.980Z,64.50
2018-02-08T17:47:09.291Z,64.70
2018-02-08T17:49:39.773Z,64.70
2018-02-08T17:52:10.282Z,64.30
2018-02-08T17:54:41.575Z,64.70
2018-02-08T17:57:12.272Z,64.70
2018-02-08T17:59:43.565Z,64.50
2018-02-08T18:02:14.085Z,64.40
2018-02-08T18:04:44.673Z,64.60
2018-02-08T18:07:15.910Z,65.20
2018-02-08T18:09:47.728Z,65.30
2018-02-08T18:12:18.206Z,65.30
2018-02-08T18:14:50.670Z,65.40
2018-02-08T18:17:22.009Z,65.50
2018-02-08T18:19:53.363Z,65.50
2018-02-08T18:22:24.625Z,65.60
2018-02-08T18:24:56.198Z,65.60
2018-02-08T18:27:28.751Z,65.30
2018-02-08T18:30:00.045Z,65.30
2018-02-08T18:32:30.540Z,65.30
2018-02-08T18:35:01.070Z,65.70
2018-02-08T18:37:32.833Z,65.60
2018-02-08T18:40:04.545Z,65.60
2018-02-08T18:42:36.673Z,65.60
2018-02-08T18:45:07.746Z,65.60
2018-02-08T18:47:38.854Z,65.60
2018-02-08T18:50:09.383Z,65.60
2018-02-08T18:52:39.853Z,65.70
2018-02-08T18:55:10.365Z,65.30
2018-02-08T18:57:42.166Z,65.30
2018-02-08T19:00:12.717Z,65.30
2018-02-08T19:02:43.454Z,65.50
2018-02-08T19:05:13.979Z,65.50
2018-02-08T19:07:44.476Z,65.50
2018-02-08T19:10:16.830Z,65.40
2018-02-08T19:12:47.346Z,65.40
2018-02-08T19:15:18.853Z,65.30
2018-02-08T19:17:49.363Z,65.00
2018-02-08T19:20:20.658Z,64.60
2018-02-08T19:22:51.163Z,64.60
2018-02-08T19:25:21.658Z,65.10
2018-02-08T19:27:53.942Z,65.20
2018-02-08T19:30:24.422Z,64.60
2018-02-08T19:32:54.922Z,64.20
2018-02-08T19:35:25.437Z,63.40
2018-02-08T19:37:55.960Z,63.40
2018-02-08T19:40:26.694Z,63.60
2018-02-08T19:42:58.020Z,62.90
2018-02-08T19:45:30.456Z,62.70
2018-02-08T19:48:00.956Z,62.60
2018-02-08T19:50:31.813Z,62.40
2018-02-08T19:53:03.323Z,62.50
2018-02-08T19:55:34.537Z,62.00
2018-02-08T19:58:05.387Z,62.00
2018-02-08T20:00:36.641Z,62.10
2018-02-08T20:03:08.208Z,62.40
2018-02-08T20:05:38.706Z,62.30
2018-02-08T20:08:09.230Z,62.20
2018-02-08T20:10:40.479Z,62.50
2018-02-08T20:13:10.996Z,62.70
2018-02-08T20:15:41.654Z,62.60
2018-02-08T20:18:12.813Z,63.20
2018-02-08T20:20:43.956Z,63.50
2018-02-08T20:23:14.319Z,63.40
2018-02-08T20:25:45.027Z,63.40
2018-02-08T20:28:15.617Z,63.50
2018-02-08T20:30:51.012Z,63.60
2018-02-08T20:33:21.429Z,64.10
2018-02-08T20:35:51.910Z,63.50
2018-02-08T20:38:22.293Z,63.70
2018-02-08T20:40:52.733Z,63.20
2018-02-08T20:43:28.265Z,63.40
2018-02-08T20:46:00.040Z,63.70
2018-02-08T20:48:31.646Z,63.60
2018-02-08T20:51:03.125Z,62.60
2018-02-08T20:53:33.650Z,62.50
2018-02-08T20:56:04.053Z,62.50
2018-02-08T20:58:36.961Z,61.80
2018-02-08T21:01:07.461Z,61.80
2018-02-08T21:03:38.658Z,63.30
2018-02-08T21:06:09.046Z,63.30
2018-02-08T21:08:39.478Z,63.40
2018-02-08T21:11:09.874Z,63.30
2018-02-08T21:13:41.140Z,63.00
2018-02-08T21:16:12.020Z,63.00
2018-02-08T21:18:42.411Z,62.30
2018-02-08T21:21:12.838Z,62.30
2018-02-08T21:23:43.177Z,62.40
2018-02-08T21:26:13.605Z,62.70
2018-02-08T21:28:44.946Z,63.00
2018-02-08T21:31:15.304Z,62.70
2018-02-08T21:33:46.956Z,62.00
2018-02-08T21:36:17.378Z,61.80
2018-02-08T21:38:48.588Z,62.00
2018-02-08T21:41:19.110Z,61.90
2018-02-08T21:43:49.942Z,62.20
2018-02-08T21:46:20.699Z,62.70
2018-02-08T21:48:51.149Z,63.10
2018-02-08T21:51:21.590Z,63.00
2018-02-08T21:53:52.098Z,62.80
2018-02-08T21:56:22.606Z,62.70
2018-02-08T21:58:53.956Z,63.00
2018-02-08T22:01:24.449Z,63.50
2018-02-08T22:03:56.140Z,63.80
2018-02-08T22:06:26.586Z,63.80
2018-02-08T22:08:57.060Z,63.90
2018-02-08T22:11:28.317Z,64.10
2018-02-08T22:13:59.758Z,64.10
2018-02-08T22:16:32.037Z,65.00
2018-02-08T22:19:03.935Z,65.00
2018-02-08T22:21:34.385Z,65.00
2018-02-08T22:24:05.114Z,64.80
2018-02-08T22:26:35.470Z,65.00
2018-02-08T22:29:06.666Z,64.80
2018-02-08T22:31:37.097Z,64.80
2018-02-08T22:34:08.724Z,64.60
2018-02-08T22:36:39.119Z,65.10
2018-02-08T22:39:10.308Z,65.20
2018-02-08T22:41:40.674Z,66.00
2018-02-08T22:44:11.107Z,65.10
2018-02-08T22:46:42.650Z,65.10
2018-02-08T22:49:13.057Z,65.20
2018-02-08T22:51:43.854Z,65.30
2018-02-08T22:54:14.423Z,65.30
2018-02-08T22:56:44.884Z,65.60
2018-02-08T22:59:16.108Z,66.00
2018-02-08T23:01:46.564Z,66.00
2018-02-08T23:04:18.023Z,66.30
2018-02-08T23:06:48.467Z,66.30
2018-02-08T23:09:18.889Z,66.30
2018-02-08T23:11:49.322Z,66.10
2018-02-08T23:14:19.774Z,66.10
2018-02-08T23:16:50.174Z,66.40
2018-02-08T23:19:20.569Z,66.80
2018-02-08T23:21:52.665Z,67.30
2018-02-08T23:24:23.057Z,67.20
2018-02-08T23:26:54.242Z,67.30
2018-02-08T23:29:24.738Z,67.20
2018-02-08T23:31:56.830Z,67.30
2018-02-08T23:34:27.450Z,67.30
2018-02-08T23:36:57.933Z,67.70
2018-02-08T23:39:29.212Z,67.60
2018-02-08T23:41:59.597Z,67.20
2018-02-08T23:44:30.003Z,66.90
2018-02-08T23:47:00.993Z,66.90
2018-02-08T23:49:32.205Z,66.70
2018-02-08T23:52:04.337Z,66.60
2018-02-08T23:54:34.799Z,66.90
2018-02-08T23:57:05.294Z,67.20
2018-02-08T23:59:35.765Z,67.50
